createdAt,value
2023-02-22T00:00:23.142Z,4.55
2023-02-22T00:03:27.999Z,4.65
2023-02-22T00:06:31.345Z,4.62
2023-02-22T00:09:34.375Z,4.51
2023-02-22T00:12:37.243Z,4.44
2023-02-22T00:15:44.509Z,4.45
2023-02-22T00:18:48.168Z,4.39
2023-02-22T00:21:56.027Z,4.37
2023-02-22T00:24:58.732Z,4.33
2023-02-22T00:28:02.309Z,4.32
2023-02-22T00:31:06.916Z,4.26
2023-02-22T00:34:09.762Z,4.17
2023-02-22T00:37:12.651Z,4.20
2023-02-22T00:40:20.200Z,4.06
2023-02-22T00:43:23.271Z,3.87
2023-02-22T00:46:26.161Z,3.70
2023-02-22T00:49:29.430Z,3.50
2023-02-22T00:52:32.492Z,3.31
2023-02-22T00:55:37.574Z,3.15
2023-02-22T00:58:40.390Z,2.96
2023-02-22T01:01:43.419Z,2.85
2023-02-22T01:04:46.434Z,2.82
2023-02-22T01:07:50.402Z,2.86
2023-02-22T01:10:53.943Z,2.87
2023-02-22T01:13:57.991Z,2.77
2023-02-22T01:17:00.953Z,2.61
2023-02-22T01:20:13.178Z,2.50
2023-02-22T01:23:17.622Z,2.37
2023-02-22T01:26:20.431Z,2.42
2023-02-22T01:29:23.501Z,2.37
2023-02-22T01:32:26.912Z,2.36
2023-02-22T01:35:33.061Z,2.38
2023-02-22T01:38:36.183Z,2.37
2023-02-22T01:41:39.358Z,2.36
2023-02-22T01:44:43.864Z,2.39
2023-02-22T01:47:46.687Z,2.33
2023-02-22T01:51:11.176Z,2.33
2023-02-22T01:54:21.721Z,2.37
2023-02-22T01:57:32.433Z,2.44
2023-02-22T02:00:40.275Z,2.50
2023-02-22T02:03:43.956Z,2.51
2023-02-22T02:06:48.326Z,2.55
2023-02-22T02:09:51.269Z,2.60
2023-02-22T02:12:55.505Z,2.65
2023-02-22T02:15:58.403Z,2.78
2023-02-22T02:19:01.605Z,2.76
2023-02-22T02:22:25.571Z,2.79
2023-02-22T02:25:31.444Z,2.70
2023-02-22T02:28:44.920Z,2.61
2023-02-22T02:32:06.051Z,2.53
2023-02-22T02:35:24.542Z,2.44
2023-02-22T02:38:39.553Z,2.35
2023-02-22T02:41:49.009Z,2.31
2023-02-22T02:45:02.980Z,2.32
2023-02-22T02:48:10.741Z,2.49
2023-02-22T02:51:16.255Z,2.51
2023-02-22T02:54:21.190Z,2.42
2023-02-22T02:57:25.070Z,2.31
2023-02-22T03:00:39.500Z,2.16
2023-02-22T03:03:55.329Z,2.07
2023-02-22T03:07:12.196Z,2.12
2023-02-22T03:10:33.588Z,2.11
2023-02-22T03:14:07.882Z,2.12
2023-02-22T03:17:41.693Z,2.20
2023-02-22T03:20:59.764Z,2.11
2023-02-22T03:24:26.570Z,2.07
2023-02-22T03:27:43.836Z,1.87
2023-02-22T03:30:54.966Z,1.75
2023-02-22T03:34:02.702Z,1.74
2023-02-22T03:37:22.129Z,1.69
2023-02-22T03:40:33.497Z,1.70
2023-02-22T03:43:42.034Z,1.74
2023-02-22T03:46:53.748Z,1.80
2023-02-22T03:50:07.894Z,1.89
2023-02-22T03:53:15.288Z,1.80
2023-02-22T03:56:24.307Z,1.70
2023-02-22T03:59:28.423Z,1.66
2023-02-22T04:02:31.155Z,1.60
2023-02-22T04:05:34.229Z,1.64
2023-02-22T04:08:38.101Z,1.64
2023-02-22T04:11:40.962Z,1.65
2023-02-22T04:14:44.111Z,1.67
2023-02-22T04:17:47.315Z,1.68
2023-02-22T04:20:52.819Z,1.59
2023-02-22T04:24:05.375Z,1.47
2023-02-22T04:27:08.410Z,1.42
2023-02-22T04:30:13.828Z,1.35
2023-02-22T04:33:18.858Z,1.32
2023-02-22T04:36:22.385Z,1.34
2023-02-22T04:39:26.287Z,1.44
2023-02-22T04:42:29.849Z,1.57
2023-02-22T04:45:32.714Z,1.58
2023-02-22T04:48:36.188Z,1.68
2023-02-22T04:51:39.215Z,1.48
2023-02-22T04:54:44.383Z,1.54
2023-02-22T04:57:47.696Z,1.55
2023-02-22T05:00:53.098Z,1.57
2023-02-22T05:03:56.418Z,1.55
2023-02-22T05:06:59.287Z,1.51
2023-02-22T05:10:02.912Z,1.53
2023-02-22T05:13:09.414Z,1.53
2023-02-22T05:16:12.550Z,1.57
2023-02-22T05:19:15.785Z,1.61
2023-02-22T05:22:18.688Z,1.70
2023-02-22T05:25:21.852Z,1.53
2023-02-22T05:28:24.806Z,1.41
2023-02-22T05:31:27.747Z,1.38
2023-02-22T05:34:31.081Z,1.42
2023-02-22T05:37:34.143Z,1.45
2023-02-22T05:40:43.060Z,1.48
2023-02-22T05:43:46.323Z,1.52
2023-02-22T05:46:49.706Z,1.57
2023-02-22T05:49:52.793Z,1.53
2023-02-22T05:52:56.072Z,1.63
2023-02-22T05:55:59.089Z,1.71
2023-02-22T05:59:02.020Z,1.86
2023-02-22T06:02:05.094Z,1.87
2023-02-22T06:05:08.554Z,1.92
2023-02-22T06:08:12.081Z,2.01
2023-02-22T06:11:15.374Z,2.06
2023-02-22T06:14:18.422Z,2.13
2023-02-22T06:17:21.267Z,2.24
2023-02-22T06:20:26.801Z,2.38
2023-02-22T06:23:29.731Z,2.59
2023-02-22T06:26:32.482Z,2.64
2023-02-22T06:29:35.541Z,2.65
2023-02-22T06:32:38.460Z,2.70
2023-02-22T06:35:41.440Z,2.84
2023-02-22T06:38:44.676Z,2.82
2023-02-22T06:41:48.081Z,2.90
2023-02-22T06:44:51.856Z,3.06
2023-02-22T06:47:55.760Z,3.24
2023-02-22T06:50:58.733Z,3.40
2023-02-22T06:54:01.666Z,3.57
2023-02-22T06:57:05.177Z,3.98
2023-02-22T07:00:09.124Z,4.30
2023-02-22T07:03:12.181Z,4.57
2023-02-22T07:06:16.410Z,5.52
2023-02-22T07:09:19.593Z,8.18
2023-02-22T07:12:22.708Z,10.03
2023-02-22T07:15:30.256Z,11.98
2023-02-22T07:18:33.230Z,13.62
2023-02-22T07:21:36.375Z,14.64
2023-02-22T07:24:40.932Z,15.73
2023-02-22T07:27:44.035Z,17.03
2023-02-22T07:30:46.942Z,17.81
2023-02-22T07:33:49.904Z,18.31
2023-02-22T07:36:52.887Z,19.42
2023-02-22T07:39:55.937Z,20.17
2023-02-22T07:43:18.942Z,20.18
2023-02-22T07:46:23.490Z,21.23
2023-02-22T07:49:26.630Z,21.76
2023-02-22T07:52:29.703Z,22.74
2023-02-22T07:55:34.414Z,23.26
2023-02-22T07:58:37.473Z,23.81
2023-02-22T08:01:41.102Z,24.35
2023-02-22T08:04:44.099Z,25.23
2023-02-22T08:07:49.074Z,24.19
2023-02-22T08:10:56.519Z,25.00
2023-02-22T08:13:59.976Z,25.10
2023-02-22T08:17:07.090Z,25.11
2023-02-22T08:20:12.073Z,26.82
2023-02-22T08:23:16.767Z,26.98
2023-02-22T08:26:21.001Z,27.05
2023-02-22T08:29:24.154Z,26.71
2023-02-22T08:32:27.299Z,27.67
2023-02-22T08:35:33.573Z,28.69
2023-02-22T08:38:44.339Z,28.52
2023-02-22T08:41:47.525Z,29.95
2023-02-22T08:44:50.373Z,29.11
2023-02-22T08:47:53.211Z,29.20
2023-02-22T08:50:56.438Z,30.09
2023-02-22T08:53:59.252Z,30.24
2023-02-22T08:57:02.838Z,28.49
2023-02-22T09:00:08.916Z,29.52
2023-02-22T09:03:15.282Z,29.44
2023-02-22T09:06:19.105Z,28.79
2023-02-22T09:09:24.120Z,29.79
2023-02-22T09:12:27.398Z,29.79
2023-02-22T09:15:32.251Z,29.68
2023-02-22T09:20:05.656Z,30.16
2023-02-22T09:23:11.314Z,31.69
2023-02-22T09:26:16.287Z,31.11
2023-02-22T09:29:25.472Z,30.15
2023-02-22T09:32:28.968Z,30.83
2023-02-22T09:41:38.906Z,31.13
2023-02-22T09:45:06.438Z,31.88
2023-02-22T09:48:21.986Z,30.63
2023-02-22T09:51:53.980Z,31.39
2023-02-22T09:55:29.123Z,31.81
2023-02-22T09:58:41.751Z,31.24
2023-02-22T10:01:51.414Z,31.92
2023-02-22T10:05:05.885Z,31.30
2023-02-22T10:08:20.287Z,31.76
2023-02-22T10:11:32.230Z,32.38
2023-02-22T10:15:12.575Z,32.33
2023-02-22T10:18:40.202Z,31.75
2023-02-22T10:22:01.025Z,30.57
2023-02-22T10:25:18.327Z,31.86
2023-02-22T10:28:35.129Z,30.95
2023-02-22T10:31:45.044Z,31.77
2023-02-22T10:34:51.809Z,32.01
2023-02-22T10:38:15.139Z,28.82
2023-02-22T10:41:36.355Z,30.98
2023-02-22T10:44:40.918Z,31.64
2023-02-22T10:47:44.180Z,30.80
2023-02-22T10:50:51.786Z,32.32
2023-02-22T10:54:10.161Z,31.88
2023-02-22T10:57:14.136Z,33.12
2023-02-22T11:00:20.502Z,31.27
2023-02-22T11:03:24.503Z,31.46
2023-02-22T11:06:28.332Z,32.07
2023-02-22T11:09:31.258Z,30.83
2023-02-22T11:12:38.833Z,31.37
2023-02-22T11:15:41.727Z,31.52
2023-02-22T11:18:52.492Z,31.82
2023-02-22T11:22:15.279Z,32.52
2023-02-22T11:25:22.673Z,32.54
2023-02-22T11:28:31.291Z,32.05
2023-02-22T11:31:43.751Z,31.00
2023-02-22T11:34:48.269Z,31.90
2023-02-22T11:37:51.120Z,32.01
2023-02-22T11:41:28.527Z,32.38
2023-02-22T11:44:35.230Z,32.43
2023-02-22T11:47:59.278Z,32.17
2023-02-22T11:51:14.997Z,31.84
2023-02-22T11:54:31.656Z,30.60
2023-02-22T11:58:23.238Z,30.83
2023-02-22T12:01:35.277Z,31.94
2023-02-22T12:04:54.584Z,33.56
2023-02-22T12:08:30.054Z,33.78
2023-02-22T12:11:44.709Z,33.57
2023-02-22T12:14:55.333Z,33.16
2023-02-22T12:18:14.384Z,32.14
2023-02-22T12:21:20.953Z,32.30
2023-02-22T12:24:38.503Z,30.36
2023-02-22T12:27:52.125Z,30.98
2023-02-22T12:31:13.839Z,32.78
2023-02-22T12:34:22.101Z,31.25
2023-02-22T12:37:29.137Z,32.82
2023-02-22T12:40:47.714Z,29.18
2023-02-22T12:44:05.339Z,31.47
2023-02-22T12:47:16.324Z,31.39
2023-02-22T12:50:23.612Z,29.54
2023-02-22T12:53:34.843Z,31.77
2023-02-22T12:56:49.334Z,31.01
2023-02-22T13:00:05.940Z,30.19
2023-02-22T13:03:33.245Z,30.07
2023-02-22T13:06:45.397Z,26.94
2023-02-22T13:09:53.950Z,25.38
2023-02-22T13:13:04.909Z,23.91
2023-02-22T13:16:16.201Z,23.07
2023-02-22T13:19:28.674Z,23.45
2023-02-22T13:22:56.131Z,22.86
2023-02-22T13:26:08.369Z,25.32
2023-02-22T13:29:39.617Z,27.32
2023-02-22T13:33:08.288Z,28.38
2023-02-22T13:36:35.921Z,26.23
2023-02-22T13:39:48.454Z,27.27
2023-02-22T13:42:59.023Z,25.47
2023-02-22T13:46:12.803Z,22.90
2023-02-22T13:49:33.295Z,20.65
2023-02-22T13:52:41.194Z,19.54
2023-02-22T13:55:49.736Z,23.16
2023-02-22T13:58:57.221Z,23.51
2023-02-22T14:02:05.517Z,22.27
2023-02-22T14:05:45.194Z,20.96
2023-02-22T14:08:48.103Z,21.97
2023-02-22T14:11:57.057Z,20.52
2023-02-22T14:15:28.617Z,23.31
2023-02-22T14:18:40.850Z,20.00
2023-02-22T14:22:06.134Z,18.42
2023-02-22T14:25:33.798Z,18.49
2023-02-22T14:28:59.976Z,17.12
2023-02-22T14:32:10.913Z,17.97
2023-02-22T14:35:44.619Z,18.89
2023-02-22T14:38:39.546Z,18.61
2023-02-22T14:41:49.822Z,18.13
2023-02-22T14:45:10.469Z,17.97
2023-02-22T14:48:14.622Z,18.32
2023-02-22T14:51:29.208Z,18.97
2023-02-22T14:54:42.307Z,18.90
2023-02-22T14:58:10.230Z,18.37
2023-02-22T15:01:20.414Z,18.07
2023-02-22T15:04:27.263Z,17.57
2023-02-22T15:07:32.270Z,16.44
2023-02-22T15:10:43.065Z,15.93
2023-02-22T15:13:51.962Z,15.63
2023-02-22T15:16:58.170Z,15.60
2023-02-22T15:20:01.199Z,15.51
2023-02-22T15:23:04.974Z,15.30
2023-02-22T15:26:16.223Z,15.19
2023-02-22T15:29:25.557Z,15.21
2023-02-22T15:32:40.203Z,15.11
2023-02-22T15:35:46.057Z,15.00
2023-02-22T15:38:51.472Z,14.89
2023-02-22T15:42:04.628Z,14.84
2023-02-22T15:45:07.692Z,14.72
2023-02-22T15:48:11.403Z,14.65
2023-02-22T15:51:16.092Z,14.49
2023-02-22T15:54:26.844Z,14.32
2023-02-22T15:57:30.707Z,14.18
2023-02-22T16:00:36.733Z,14.01
2023-02-22T16:03:56.103Z,13.83
2023-02-22T16:07:17.335Z,13.68
2023-02-22T16:10:33.562Z,13.53
2023-02-22T16:13:36.732Z,13.34
2023-02-22T16:16:41.891Z,13.19
2023-02-22T16:19:50.669Z,13.15
2023-02-22T16:22:57.850Z,13.14
2023-02-22T16:26:31.518Z,13.10
2023-02-22T16:29:34.446Z,12.98
2023-02-22T16:32:37.552Z,12.89
2023-02-22T16:35:41.281Z,12.76
2023-02-22T16:38:48.382Z,12.57
2023-02-22T16:41:52.089Z,12.47
2023-02-22T16:44:55.037Z,12.39
2023-02-22T16:48:00.120Z,12.32
2023-02-22T16:51:10.883Z,12.19
2023-02-22T16:54:19.464Z,12.18
2023-02-22T16:57:26.881Z,12.07
2023-02-22T17:00:32.745Z,11.99
2023-02-22T17:03:36.057Z,11.91
2023-02-22T17:06:39.625Z,11.82
2023-02-22T17:09:42.589Z,11.71
2023-02-22T17:12:48.608Z,11.61
2023-02-22T17:15:51.945Z,11.56
2023-02-22T17:18:54.845Z,11.55
2023-02-22T17:21:58.087Z,11.46
2023-02-22T17:25:00.974Z,11.40
2023-02-22T17:28:05.326Z,11.34
2023-02-22T17:31:08.541Z,11.25
2023-02-22T17:34:11.715Z,11.19
2023-02-22T17:37:14.764Z,11.12
2023-02-22T17:40:18.304Z,10.99
2023-02-22T17:43:22.032Z,10.91
2023-02-22T17:46:25.794Z,10.86
2023-02-22T17:49:28.840Z,10.88
2023-02-22T17:52:32.390Z,10.83
2023-02-22T17:55:37.883Z,10.78
2023-02-22T17:58:41.565Z,10.63
2023-02-22T18:01:44.947Z,10.61
2023-02-22T18:04:47.891Z,10.51
2023-02-22T18:07:50.731Z,10.37
2023-02-22T18:10:56.666Z,10.31
2023-02-22T18:13:59.968Z,10.23
2023-02-22T18:17:03.324Z,10.21
2023-02-22T18:20:11.792Z,10.21
2023-02-22T18:23:19.993Z,10.11
2023-02-22T18:26:24.626Z,9.94
2023-02-22T18:29:29.098Z,9.88
2023-02-22T18:32:32.568Z,9.76
2023-02-22T18:35:35.359Z,9.66
2023-02-22T18:38:43.231Z,9.55
2023-02-22T18:41:48.948Z,9.44
2023-02-22T18:44:52.327Z,9.37
2023-02-22T18:47:55.371Z,9.33
2023-02-22T18:51:03.136Z,9.16
2023-02-22T18:54:06.301Z,9.08
2023-02-22T18:57:12.559Z,9.02
2023-02-22T19:00:19.673Z,8.99
2023-02-22T19:03:23.727Z,8.89
2023-02-22T19:06:26.998Z,8.75
2023-02-22T19:09:30.521Z,8.56
2023-02-22T19:12:33.958Z,8.40
2023-02-22T19:15:38.494Z,8.24
2023-02-22T19:18:44.378Z,8.19
2023-02-22T19:21:49.275Z,8.09
2023-02-22T19:24:55.017Z,8.20
2023-02-22T19:27:57.874Z,8.09
2023-02-22T19:31:15.777Z,8.05
2023-02-22T19:34:21.982Z,8.09
2023-02-22T19:37:27.894Z,8.12
2023-02-22T19:40:30.950Z,8.12
2023-02-22T19:43:34.840Z,8.05
2023-02-22T19:46:39.125Z,8.14
2023-02-22T19:49:42.254Z,8.10
2023-02-22T19:52:46.368Z,8.01
2023-02-22T19:55:51.216Z,7.99
2023-02-22T19:58:56.507Z,7.95
2023-02-22T20:01:59.283Z,7.94
2023-02-22T20:05:02.810Z,7.88
2023-02-22T20:08:06.419Z,7.89
2023-02-22T20:11:10.809Z,7.77
2023-02-22T20:14:18.562Z,7.73
2023-02-22T20:17:21.439Z,7.63
2023-02-22T20:20:25.874Z,7.52
2023-02-22T20:23:28.903Z,7.42
2023-02-22T20:26:36.351Z,7.33
2023-02-22T20:29:39.663Z,7.28
2023-02-22T20:32:42.836Z,7.14
2023-02-22T20:35:47.879Z,7.07
2023-02-22T20:38:59.261Z,7.10
2023-02-22T20:42:04.939Z,7.22
2023-02-22T20:45:09.760Z,7.36
2023-02-22T20:48:14.077Z,7.28
2023-02-22T20:51:17.342Z,7.16
2023-02-22T20:54:20.854Z,7.15
2023-02-22T20:57:24.004Z,7.09
2023-02-22T21:00:27.078Z,7.09
2023-02-22T21:03:33.136Z,6.95
2023-02-22T21:06:37.307Z,6.91
2023-02-22T21:09:41.776Z,6.90
2023-02-22T21:12:48.069Z,6.90
2023-02-22T21:15:52.873Z,6.85
2023-02-22T21:19:00.276Z,6.82
2023-02-22T21:22:08.507Z,6.75
2023-02-22T21:25:13.665Z,6.68
2023-02-22T21:28:16.809Z,6.90
2023-02-22T21:31:22.763Z,7.00
2023-02-22T21:34:26.785Z,6.84
2023-02-22T21:37:29.659Z,6.64
2023-02-22T21:40:35.069Z,6.54
2023-02-22T21:43:40.275Z,6.50
2023-02-22T21:46:43.476Z,6.45
2023-02-22T21:49:46.190Z,6.34
2023-02-22T21:52:49.591Z,6.26
2023-02-22T21:55:53.800Z,6.18
2023-02-22T21:59:00.045Z,6.21
2023-02-22T22:02:03.075Z,6.17
2023-02-22T22:05:06.298Z,6.00
2023-02-22T22:08:11.751Z,5.88
2023-02-22T22:11:17.937Z,5.85
2023-02-22T22:14:23.851Z,5.74
2023-02-22T22:17:27.185Z,5.66
2023-02-22T22:20:30.032Z,5.70
2023-02-22T22:23:33.433Z,5.69
2023-02-22T22:26:37.804Z,5.76
2023-02-22T22:29:41.204Z,5.80
2023-02-22T22:32:45.473Z,5.97
2023-02-22T22:35:48.310Z,6.04
2023-02-22T22:38:52.840Z,6.00
2023-02-22T22:41:55.840Z,6.03
2023-02-22T22:44:58.646Z,6.08
2023-02-22T22:48:02.438Z,6.09
2023-02-22T22:51:10.112Z,5.99
2023-02-22T22:54:13.800Z,5.99
2023-02-22T22:57:16.616Z,6.00
2023-02-22T23:00:37.677Z,6.00
2023-02-22T23:03:41.317Z,5.97
2023-02-22T23:06:50.761Z,5.92
2023-02-22T23:09:53.588Z,5.87
2023-02-22T23:12:56.703Z,5.83
2023-02-22T23:15:59.472Z,5.75
2023-02-22T23:19:02.343Z,5.78
2023-02-22T23:22:07.372Z,5.69
2023-02-22T23:25:10.209Z,5.58
2023-02-22T23:28:14.984Z,5.60
2023-02-22T23:31:18.326Z,5.65
2023-02-22T23:34:23.303Z,5.57
2023-02-22T23:37:26.167Z,5.55
2023-02-22T23:40:29.264Z,5.48
2023-02-22T23:43:32.804Z,5.47
2023-02-22T23:46:36.773Z,5.38
2023-02-22T23:49:43.512Z,5.32
2023-02-22T23:52:46.477Z,5.28
2023-02-22T23:55:49.300Z,5.19
2023-02-22T23:58:52.852Z,5.16
